Smyrna Mills, Maine
Current Conditions -  °F | °C
As of 5:53 PM on Wednesday 22 Oct 2014 (Local Time) from KHUL Reporting Station
Light Rain Light Rain  
Wind Chill: 38°   Ceiling: 8500
Heat Index: 45°   Visibility: 9mi
Dew Point: 38°   Wind: 17mph
Humidity: 76%   Direction: 50°NE
Pressure: 30.29"   Gusts: NA
Location:  46.13°N, 68.17°W
Report Text: KHUL 222153Z AUTO 05015KT 9SM -RA OVC085 07/03 A3029 RMK AO2 SLP263 P0000 T00720033
Loading
Personal Weather Stations






























Interactive Weather Map
Tropical Storm Tracking
New forecast layout! Learn more

10-Day Weather Forecast

Advertisements
Track Severe Weather on mobile